Terminal Aerodrome Forecast
Issued by NWS

Home | Current Version | Previous Version | Text Only | Print | Product List | Glossary On
Versions: 1 2 3 4 5 6 7 8 9 10 11 12 13 14 15 16 17 18 19 20 21 22 23
562
FTUS43 KGRR 042340
TAFAZO
TAF
KAZO 042340Z 0500/0524 32013G21KT 5SM -RA BR OVC015
      TEMPO 0500/0502 2SM RA BR OVC009
     FM050400 36009KT P6SM OVC009
     FM050700 36008KT P6SM OVC015
     FM051400 01011KT P6SM BKN080
     FM051800 31010KT P6SM SKC=

USA.gov is the U.S. government's official web portal to all federal, state and local government web resources and services.